createdAt,value
2022-10-07T00:00:52.824Z,16.67
2022-10-07T00:03:21.979Z,16.25
2022-10-07T00:06:07.534Z,16.83
2022-10-07T00:08:38.742Z,15.43
2022-10-07T00:11:08.034Z,16.25
2022-10-07T00:13:36.866Z,17.00
2022-10-07T00:16:07.148Z,16.40
2022-10-07T00:18:34.835Z,17.13
2022-10-07T00:21:06.721Z,16.65
2022-10-07T00:26:05.282Z,15.25
2022-10-07T00:28:32.145Z,18.27
2022-10-07T00:31:02.040Z,17.42
2022-10-07T00:33:34.039Z,17.40
2022-10-07T00:36:00.644Z,15.65
2022-10-07T00:38:27.207Z,17.90
2022-10-07T00:40:53.834Z,18.08
2022-10-07T00:43:31.999Z,18.30
2022-10-07T00:46:07.884Z,20.77
2022-10-07T00:48:37.084Z,19.40
2022-10-07T00:51:03.834Z,18.92
2022-10-07T00:53:33.709Z,21.10
2022-10-07T00:56:03.142Z,21.23
2022-10-07T00:58:31.949Z,22.75
2022-10-07T01:00:58.949Z,19.85
2022-10-07T01:03:25.749Z,18.77
2022-10-07T01:05:52.317Z,17.95
2022-10-07T01:08:20.550Z,17.85
2022-10-07T01:11:14.139Z,20.63
2022-10-07T01:13:58.863Z,18.27
2022-10-07T01:16:40.247Z,18.92
2022-10-07T01:19:37.507Z,18.05
2022-10-07T01:22:22.103Z,18.70
2022-10-07T01:25:06.971Z,16.52
2022-10-07T01:27:35.342Z,17.17
2022-10-07T01:30:07.260Z,18.63
2022-10-07T01:32:39.108Z,21.27
2022-10-07T01:37:40.931Z,21.20
2022-10-07T01:40:17.365Z,20.42
2022-10-07T01:42:45.880Z,18.70
2022-10-07T01:45:17.079Z,19.38
2022-10-07T01:47:43.950Z,21.65
2022-10-07T01:50:15.412Z,22.20
2022-10-07T01:52:51.143Z,20.58
2022-10-07T01:55:36.036Z,20.25
2022-10-07T01:58:33.162Z,21.67
2022-10-07T02:01:23.208Z,21.20
2022-10-07T02:04:22.456Z,21.65
2022-10-07T02:07:17.532Z,21.88
2022-10-07T02:10:21.186Z,22.90
2022-10-07T02:12:53.848Z,21.83
2022-10-07T02:15:28.107Z,17.50
2022-10-07T02:17:58.938Z,20.65
2022-10-07T02:20:29.557Z,20.10
2022-10-07T02:22:58.976Z,17.60
2022-10-07T02:25:28.991Z,19.95
2022-10-07T02:27:57.729Z,18.80
2022-10-07T02:30:24.759Z,18.83
2022-10-07T02:32:56.048Z,16.40
2022-10-07T02:35:54.839Z,15.57
2022-10-07T02:38:22.807Z,19.58
2022-10-07T02:41:11.258Z,22.13
2022-10-07T02:43:49.818Z,18.27
2022-10-07T02:46:18.907Z,19.95
2022-10-07T02:49:08.942Z,19.33
2022-10-07T02:51:43.132Z,19.15
2022-10-07T02:54:09.800Z,19.92
2022-10-07T02:56:38.866Z,20.40
2022-10-07T02:59:09.905Z,18.50
2022-10-07T03:01:45.491Z,17.87
2022-10-07T03:04:13.939Z,18.63
2022-10-07T03:06:42.961Z,19.10
2022-10-07T03:09:11.024Z,19.70
2022-10-07T03:11:39.320Z,17.88
2022-10-07T03:14:06.749Z,19.02
2022-10-07T03:16:33.644Z,19.92
2022-10-07T03:19:00.421Z,22.10
2022-10-07T03:21:27.298Z,20.67
2022-10-07T03:23:55.475Z,20.50
2022-10-07T03:26:22.228Z,20.10
2022-10-07T03:28:49.060Z,19.67
2022-10-07T03:31:15.842Z,23.52
2022-10-07T03:33:43.223Z,19.65
2022-10-07T03:36:10.441Z,21.15
2022-10-07T03:38:37.217Z,22.85
2022-10-07T03:41:04.821Z,22.52
2022-10-07T03:43:32.547Z,21.58
2022-10-07T03:46:02.388Z,21.50
2022-10-07T03:48:32.042Z,21.15
2022-10-07T03:50:59.049Z,20.90
2022-10-07T03:53:28.964Z,23.40
2022-10-07T03:55:56.109Z,22.30
2022-10-07T03:58:23.115Z,21.10
2022-10-07T04:00:49.666Z,21.13
2022-10-07T04:03:18.804Z,21.60
2022-10-07T04:05:58.227Z,23.35
2022-10-07T04:08:28.050Z,23.35
2022-10-07T04:10:55.158Z,22.90
2022-10-07T04:13:21.751Z,22.40
2022-10-07T04:15:49.243Z,21.05
2022-10-07T04:18:19.373Z,17.70
2022-10-07T04:20:46.065Z,21.42
2022-10-07T04:23:12.700Z,21.55
2022-10-07T04:25:44.019Z,22.73
2022-10-07T04:28:26.339Z,22.50
2022-10-07T04:30:54.105Z,23.95
2022-10-07T04:33:22.618Z,25.13
2022-10-07T04:35:50.283Z,27.92
2022-10-07T04:38:18.535Z,23.95
2022-10-07T04:40:48.168Z,25.70
2022-10-07T04:43:20.688Z,23.05
2022-10-07T04:45:48.998Z,22.15
2022-10-07T04:48:18.908Z,22.15
2022-10-07T04:50:45.927Z,23.80
2022-10-07T04:53:14.441Z,23.90
2022-10-07T04:55:46.409Z,26.17
2022-10-07T04:58:14.092Z,26.65
2022-10-07T05:00:49.056Z,22.58
2022-10-07T05:03:17.627Z,25.52
2022-10-07T05:05:46.645Z,26.58
2022-10-07T05:08:15.134Z,26.85
2022-10-07T05:10:42.262Z,22.92
2022-10-07T05:13:12.494Z,24.98
2022-10-07T05:15:55.134Z,22.67
2022-10-07T05:18:23.168Z,24.00
2022-10-07T05:20:50.523Z,22.60
2022-10-07T05:23:22.325Z,22.77
2022-10-07T05:26:04.995Z,20.73
2022-10-07T05:28:32.021Z,20.98
2022-10-07T05:31:08.726Z,21.30
2022-10-07T05:33:35.992Z,16.77
2022-10-07T05:36:04.843Z,19.70
2022-10-07T05:38:31.526Z,21.55
2022-10-07T05:41:00.023Z,20.88
2022-10-07T05:43:29.384Z,22.75
2022-10-07T05:46:07.905Z,20.85
2022-10-07T05:48:39.279Z,18.17
2022-10-07T05:51:08.098Z,18.40
2022-10-07T05:53:34.971Z,22.38
2022-10-07T05:56:09.084Z,22.13
2022-10-07T05:58:37.169Z,23.63
2022-10-07T06:01:11.596Z,24.15
2022-10-07T06:03:40.779Z,23.25
2022-10-07T06:06:08.515Z,21.27
2022-10-07T06:08:35.749Z,18.48
2022-10-07T06:11:22.850Z,20.70
2022-10-07T06:13:54.344Z,21.27
2022-10-07T06:16:22.179Z,21.27
2022-10-07T06:18:50.680Z,21.83
2022-10-07T06:21:17.281Z,20.88
2022-10-07T06:23:44.060Z,21.92
2022-10-07T06:26:11.867Z,21.42
2022-10-07T06:28:40.371Z,19.20
2022-10-07T06:31:12.733Z,17.38
2022-10-07T06:33:40.346Z,18.50
2022-10-07T06:36:10.283Z,18.55
2022-10-07T06:38:37.020Z,18.15
2022-10-07T06:41:05.807Z,17.63
2022-10-07T06:43:34.659Z,19.73
2022-10-07T06:46:04.935Z,15.68
2022-10-07T06:48:33.596Z,17.13
2022-10-07T06:51:04.097Z,19.73
2022-10-07T06:53:31.893Z,18.80
2022-10-07T06:56:03.202Z,20.40
2022-10-07T06:58:30.301Z,16.88
2022-10-07T07:00:59.833Z,18.77
2022-10-07T07:03:27.255Z,16.25
2022-10-07T07:05:55.123Z,19.02
2022-10-07T07:08:25.317Z,16.20
2022-10-07T07:10:52.223Z,16.08
2022-10-07T07:13:18.874Z,18.23
2022-10-07T07:15:55.380Z,18.30
2022-10-07T07:18:22.134Z,20.98
2022-10-07T07:20:48.710Z,17.45
2022-10-07T07:23:15.352Z,17.38
2022-10-07T07:25:46.517Z,16.42
2022-10-07T07:28:15.503Z,17.65
2022-10-07T07:30:42.470Z,17.38
2022-10-07T07:33:09.957Z,17.00
2022-10-07T07:35:41.464Z,17.95
2022-10-07T07:38:09.035Z,16.75
2022-10-07T07:40:39.863Z,16.67
2022-10-07T07:43:07.687Z,18.08
2022-10-07T07:45:37.886Z,16.65
2022-10-07T07:48:05.223Z,15.43
2022-10-07T07:50:32.031Z,17.48
2022-10-07T07:53:00.257Z,17.33
2022-10-07T07:55:26.986Z,17.17
2022-10-07T07:57:53.637Z,15.90
2022-10-07T08:00:20.373Z,17.02
2022-10-07T08:02:47.591Z,13.50
2022-10-07T08:05:14.353Z,13.85
2022-10-07T08:07:41.045Z,11.52
2022-10-07T08:10:08.146Z,13.52
2022-10-07T08:12:34.685Z,12.52
2022-10-07T08:15:01.250Z,13.57
2022-10-07T08:17:27.818Z,12.40
2022-10-07T08:19:55.305Z,12.85
2022-10-07T08:22:22.502Z,13.55
2022-10-07T08:24:49.056Z,15.40
2022-10-07T08:27:15.652Z,13.88
2022-10-07T08:29:42.371Z,13.43
2022-10-07T08:32:08.936Z,10.05
2022-10-07T08:34:36.549Z,10.57
2022-10-07T08:37:03.521Z,10.95
2022-10-07T08:39:31.272Z,13.32
2022-10-07T08:42:22.693Z,10.68
2022-10-07T08:44:50.336Z,11.70
2022-10-07T08:47:20.333Z,10.98
2022-10-07T08:50:19.127Z,9.73
2022-10-07T08:52:58.249Z,11.02
2022-10-07T08:55:43.866Z,11.20
2022-10-07T08:58:14.480Z,12.15
2022-10-07T09:00:58.571Z,9.75
2022-10-07T09:03:55.375Z,10.93
2022-10-07T09:06:44.994Z,9.57
2022-10-07T09:09:20.029Z,8.88
2022-10-07T09:11:48.327Z,8.38
2022-10-07T09:14:26.307Z,8.82
2022-10-07T09:16:56.804Z,8.93
2022-10-07T09:19:33.054Z,6.65
2022-10-07T09:22:11.664Z,5.20
2022-10-07T09:24:38.515Z,6.00
2022-10-07T09:27:16.166Z,5.90
2022-10-07T09:29:42.933Z,5.32
2022-10-07T09:32:15.096Z,6.40
2022-10-07T09:34:41.851Z,4.65
2022-10-07T09:37:13.018Z,4.85
2022-10-07T09:39:41.082Z,4.53
2022-10-07T09:42:16.065Z,5.32
2022-10-07T09:44:49.599Z,6.28
2022-10-07T09:47:23.112Z,6.60
2022-10-07T09:49:56.927Z,7.35
2022-10-07T09:52:27.418Z,7.60
2022-10-07T09:54:57.365Z,6.78
2022-10-07T09:57:28.912Z,7.57
2022-10-07T10:00:13.824Z,7.72
2022-10-07T10:02:44.174Z,7.35
2022-10-07T10:05:30.471Z,9.13
2022-10-07T10:08:05.621Z,9.55
2022-10-07T10:10:34.503Z,8.20
2022-10-07T10:13:03.731Z,9.07
2022-10-07T10:15:41.104Z,9.30
2022-10-07T10:18:40.913Z,7.70
2022-10-07T10:21:22.605Z,8.95
2022-10-07T10:23:52.793Z,8.65
2022-10-07T10:26:48.051Z,9.65
2022-10-07T10:29:23.399Z,9.95
2022-10-07T10:31:49.932Z,10.20
2022-10-07T10:34:38.429Z,9.75
2022-10-07T10:37:21.939Z,10.20
2022-10-07T10:39:57.732Z,10.02
2022-10-07T10:43:16.605Z,10.50
2022-10-07T10:46:07.989Z,10.77
2022-10-07T10:48:55.631Z,9.70
2022-10-07T10:51:44.249Z,8.68
2022-10-07T10:54:10.802Z,11.30
2022-10-07T10:56:43.757Z,9.18
2022-10-07T10:59:35.071Z,10.82
2022-10-07T11:02:43.647Z,8.63
2022-10-07T11:05:19.623Z,7.82
2022-10-07T11:07:50.731Z,8.77
2022-10-07T11:10:17.411Z,6.75
2022-10-07T11:12:48.640Z,8.20
2022-10-07T11:15:41.410Z,6.68
2022-10-07T11:18:18.191Z,6.05
2022-10-07T11:20:48.247Z,5.18
2022-10-07T11:23:45.773Z,5.28
2022-10-07T11:26:23.125Z,5.43
2022-10-07T11:28:52.199Z,6.35
2022-10-07T11:31:27.494Z,5.60
2022-10-07T11:34:16.858Z,6.45
2022-10-07T11:37:06.046Z,5.90
2022-10-07T11:39:37.116Z,6.03
2022-10-07T11:42:31.092Z,4.85
2022-10-07T11:45:08.586Z,4.40
2022-10-07T11:47:42.981Z,4.40
2022-10-07T11:50:15.454Z,5.18
2022-10-07T11:52:46.927Z,5.53
2022-10-07T11:58:00.461Z,4.30
2022-10-07T12:00:32.877Z,4.85
2022-10-07T12:03:13.927Z,4.20
2022-10-07T12:05:40.502Z,3.72
2022-10-07T12:08:10.066Z,3.53
2022-10-07T12:10:36.745Z,3.95
2022-10-07T12:13:09.451Z,3.72
2022-10-07T12:15:38.934Z,3.60
2022-10-07T12:18:05.659Z,3.75
2022-10-07T12:20:35.038Z,3.90
2022-10-07T12:23:22.671Z,3.25
2022-10-07T12:25:57.112Z,4.00
2022-10-07T12:28:40.156Z,3.72
2022-10-07T12:31:32.837Z,3.50
2022-10-07T12:34:05.584Z,3.85
2022-10-07T12:36:33.146Z,3.25
2022-10-07T12:38:59.962Z,3.47
2022-10-07T12:41:45.298Z,3.40
2022-10-07T12:44:23.454Z,3.13
2022-10-07T12:47:01.720Z,3.42
2022-10-07T12:49:43.519Z,3.67
2022-10-07T12:54:46.730Z,3.30
2022-10-07T12:57:19.805Z,3.63
2022-10-07T12:59:58.002Z,4.50
2022-10-07T13:02:52.300Z,3.53
2022-10-07T13:05:37.927Z,3.92
2022-10-07T13:08:23.297Z,4.90
2022-10-07T13:11:12.616Z,3.55
2022-10-07T13:14:11.928Z,3.58
2022-10-07T13:17:13.214Z,3.83
2022-10-07T13:19:42.594Z,3.70
2022-10-07T13:22:17.757Z,4.38
2022-10-07T13:24:51.253Z,4.28
2022-10-07T13:27:26.523Z,5.53
2022-10-07T13:29:54.216Z,4.30
2022-10-07T13:32:24.875Z,4.60
2022-10-07T13:34:54.469Z,5.32
2022-10-07T13:37:27.588Z,4.40
2022-10-07T13:39:55.763Z,4.93
2022-10-07T13:42:29.288Z,5.03
2022-10-07T13:45:03.841Z,6.07
2022-10-07T13:47:36.643Z,5.55
2022-10-07T13:50:04.596Z,4.68
2022-10-07T13:52:36.137Z,5.50
2022-10-07T13:55:03.638Z,4.50
2022-10-07T13:57:31.394Z,5.30
2022-10-07T14:00:00.383Z,4.97
2022-10-07T14:02:27.829Z,4.60
2022-10-07T14:05:05.194Z,4.95
2022-10-07T14:07:31.821Z,5.13
2022-10-07T14:09:58.781Z,4.65
2022-10-07T14:12:34.620Z,4.60
2022-10-07T14:15:07.034Z,4.40
2022-10-07T14:17:44.167Z,3.90
2022-10-07T14:20:36.998Z,3.90
2022-10-07T14:23:28.547Z,4.45
2022-10-07T14:26:00.942Z,5.75
2022-10-07T14:28:32.348Z,5.68
2022-10-07T14:31:24.147Z,5.55
2022-10-07T14:34:27.808Z,6.32
2022-10-07T14:37:03.301Z,5.88
2022-10-07T14:39:51.259Z,7.18
2022-10-07T14:42:22.816Z,6.45
2022-10-07T14:44:50.733Z,7.60
2022-10-07T14:47:21.016Z,7.10
2022-10-07T14:49:59.741Z,6.57
2022-10-07T14:52:40.744Z,6.82
2022-10-07T14:55:21.266Z,8.07
2022-10-07T14:57:48.346Z,6.65
2022-10-07T15:00:23.549Z,7.28
2022-10-07T15:02:50.829Z,6.90
2022-10-07T15:05:18.258Z,7.22
2022-10-07T15:07:45.209Z,6.03
2022-10-07T15:10:24.113Z,6.70
2022-10-07T15:12:51.434Z,6.40
2022-10-07T15:15:19.205Z,6.30
2022-10-07T15:17:46.267Z,5.93
2022-10-07T15:20:15.635Z,6.07
2022-10-07T15:22:43.504Z,7.13
2022-10-07T15:25:12.478Z,6.25
2022-10-07T15:27:40.075Z,7.45
2022-10-07T15:30:07.965Z,10.05
2022-10-07T15:32:34.773Z,7.95
2022-10-07T15:35:02.157Z,7.63
2022-10-07T15:37:28.942Z,7.85
2022-10-07T15:39:55.843Z,7.40
2022-10-07T15:42:24.529Z,7.00
2022-10-07T15:44:52.236Z,8.05
2022-10-07T15:47:19.731Z,8.18
2022-10-07T15:49:46.864Z,9.07
2022-10-07T15:52:15.309Z,7.97
2022-10-07T15:54:41.897Z,7.47
2022-10-07T15:57:09.217Z,7.03
2022-10-07T15:59:35.808Z,7.13
2022-10-07T16:02:04.503Z,7.93
2022-10-07T16:04:31.614Z,7.07
2022-10-07T16:06:59.380Z,7.63
2022-10-07T16:09:26.031Z,7.30
2022-10-07T16:11:53.331Z,8.52
2022-10-07T16:14:19.908Z,8.30
2022-10-07T16:16:47.130Z,8.63
2022-10-07T16:19:13.919Z,8.63
2022-10-07T16:21:43.163Z,10.48
2022-10-07T16:24:17.287Z,10.52
2022-10-07T16:26:45.647Z,12.52
2022-10-07T16:29:33.246Z,9.68
2022-10-07T16:32:00.677Z,12.13
2022-10-07T16:34:30.531Z,11.48
2022-10-07T16:37:00.243Z,13.00
2022-10-07T16:39:26.997Z,11.70
2022-10-07T16:41:54.646Z,11.18
2022-10-07T16:44:21.497Z,11.07
2022-10-07T16:46:49.528Z,13.43
2022-10-07T16:49:18.791Z,13.10
2022-10-07T16:51:47.240Z,17.63
2022-10-07T16:54:16.466Z,19.27
2022-10-07T16:56:49.801Z,21.90
2022-10-07T16:59:23.711Z,25.77
2022-10-07T17:01:54.004Z,20.45
2022-10-07T17:04:21.139Z,19.58
2022-10-07T17:06:48.852Z,23.83
2022-10-07T17:09:15.816Z,22.08
2022-10-07T17:11:43.178Z,22.83
2022-10-07T17:14:15.467Z,29.13
2022-10-07T17:16:51.274Z,29.13
2022-10-07T17:19:20.366Z,29.27
2022-10-07T17:21:49.180Z,26.90
2022-10-07T17:24:17.511Z,28.70
2022-10-07T17:26:45.926Z,27.83
2022-10-07T17:29:16.565Z,29.85
2022-10-07T17:31:47.762Z,27.30
2022-10-07T17:34:16.152Z,27.17
2022-10-07T17:36:44.527Z,27.35
2022-10-07T17:39:12.030Z,29.67
2022-10-07T17:41:58.385Z,29.17
2022-10-07T17:44:25.047Z,30.33
2022-10-07T17:46:53.311Z,33.65
2022-10-07T17:49:20.783Z,34.17
2022-10-07T17:51:48.849Z,31.63
2022-10-07T17:54:15.500Z,32.60
2022-10-07T17:56:45.073Z,33.13
2022-10-07T17:59:12.329Z,30.08
2022-10-07T18:01:39.727Z,29.02
2022-10-07T18:04:10.043Z,27.60
2022-10-07T18:06:40.121Z,24.98
2022-10-07T18:09:12.908Z,25.02
2022-10-07T18:11:59.164Z,27.10
2022-10-07T18:14:44.431Z,26.65
2022-10-07T18:17:11.864Z,30.48
2022-10-07T18:19:41.910Z,31.02
2022-10-07T18:22:09.339Z,28.55
2022-10-07T18:24:36.036Z,28.52
2022-10-07T18:27:03.606Z,29.27
2022-10-07T18:29:32.612Z,26.85
2022-10-07T18:32:02.378Z,25.80
2022-10-07T18:34:29.071Z,25.02
2022-10-07T18:36:57.459Z,26.30
2022-10-07T18:39:27.348Z,25.80
2022-10-07T18:41:54.918Z,27.52
2022-10-07T18:44:21.872Z,25.55
2022-10-07T18:46:48.701Z,25.65
2022-10-07T18:49:16.101Z,27.08
2022-10-07T18:51:45.835Z,24.02
2022-10-07T18:54:15.199Z,22.17
2022-10-07T18:56:41.904Z,27.10
2022-10-07T18:59:10.600Z,38.55
2022-10-07T19:01:37.747Z,35.33
2022-10-07T19:04:08.151Z,29.40
2022-10-07T19:06:37.167Z,28.92
2022-10-07T19:09:07.745Z,28.80
2022-10-07T19:11:35.439Z,30.33
2022-10-07T19:14:03.151Z,29.42
2022-10-07T19:16:35.706Z,28.38
2022-10-07T19:19:13.197Z,30.15
2022-10-07T19:21:40.393Z,26.60
2022-10-07T19:24:08.275Z,28.65
2022-10-07T19:26:42.653Z,26.48
2022-10-07T19:29:10.659Z,25.55
2022-10-07T19:31:43.003Z,25.83
2022-10-07T19:34:22.269Z,25.25
2022-10-07T19:36:50.024Z,23.08
2022-10-07T19:39:22.614Z,23.38
2022-10-07T19:41:50.991Z,23.98
2022-10-07T19:44:18.761Z,21.48
2022-10-07T19:46:50.794Z,23.35
2022-10-07T19:49:18.095Z,23.52
2022-10-07T19:51:45.575Z,24.80
2022-10-07T19:54:14.223Z,25.40
2022-10-07T19:56:41.382Z,29.52
2022-10-07T19:59:12.134Z,31.63
2022-10-07T20:01:42.006Z,33.00
2022-10-07T20:04:16.131Z,35.00
2022-10-07T20:06:43.844Z,38.13
2022-10-07T20:09:17.268Z,35.95
2022-10-07T20:11:44.348Z,35.80
2022-10-07T20:14:11.834Z,34.88
2022-10-07T20:16:39.463Z,30.40
2022-10-07T20:19:16.245Z,29.08
2022-10-07T20:21:44.051Z,27.58
2022-10-07T20:24:15.341Z,33.80
2022-10-07T20:26:43.850Z,31.35
2022-10-07T20:29:12.720Z,31.27
2022-10-07T20:31:41.393Z,31.77
2022-10-07T20:34:11.990Z,30.35
2022-10-07T20:36:38.888Z,28.67
2022-10-07T20:39:37.038Z,28.08
2022-10-07T20:42:25.420Z,25.17
2022-10-07T20:44:53.902Z,26.50
2022-10-07T20:47:21.863Z,25.20
2022-10-07T20:49:52.024Z,24.25
2022-10-07T20:52:24.415Z,24.92
2022-10-07T20:54:52.990Z,24.55
2022-10-07T20:57:27.494Z,24.75
2022-10-07T20:59:55.966Z,24.00
2022-10-07T21:02:24.299Z,25.42
2022-10-07T21:04:53.081Z,24.25
2022-10-07T21:07:20.265Z,26.23
2022-10-07T21:09:48.183Z,23.52
2022-10-07T21:12:16.953Z,24.30
2022-10-07T21:14:44.940Z,22.63
2022-10-07T21:17:11.741Z,20.63
2022-10-07T21:19:39.085Z,19.90
2022-10-07T21:22:06.289Z,19.20
2022-10-07T21:24:34.956Z,19.00
2022-10-07T21:27:07.139Z,18.83
2022-10-07T21:29:40.097Z,18.27
2022-10-07T21:32:07.687Z,17.15
2022-10-07T21:34:35.134Z,16.35
2022-10-07T21:37:01.719Z,17.55
2022-10-07T21:39:29.454Z,15.63
2022-10-07T21:41:58.066Z,14.50
2022-10-07T21:44:25.926Z,15.98
2022-10-07T21:46:52.513Z,15.35
2022-10-07T21:49:19.588Z,15.27
2022-10-07T21:51:46.331Z,15.13
2022-10-07T21:54:14.989Z,15.65
2022-10-07T21:56:43.707Z,14.95
2022-10-07T21:59:10.977Z,14.40
2022-10-07T22:01:38.665Z,13.98
2022-10-07T22:04:06.162Z,14.45
2022-10-07T22:07:02.570Z,14.50
2022-10-07T22:09:29.476Z,12.73
2022-10-07T22:11:57.004Z,12.68
2022-10-07T22:14:23.817Z,12.15
2022-10-07T22:16:50.474Z,11.93
2022-10-07T22:19:20.372Z,12.50
2022-10-07T22:21:46.976Z,12.10
2022-10-07T22:24:14.302Z,13.43
2022-10-07T22:26:47.862Z,11.15
2022-10-07T22:29:16.493Z,11.82
2022-10-07T22:31:44.037Z,11.63
2022-10-07T22:34:30.633Z,12.55
2022-10-07T22:37:00.104Z,13.43
2022-10-07T22:39:26.974Z,13.98
2022-10-07T22:41:54.951Z,12.43
2022-10-07T22:44:21.982Z,12.05
2022-10-07T22:46:48.548Z,11.70
2022-10-07T22:49:15.343Z,11.43
2022-10-07T22:51:42.536Z,10.27
2022-10-07T22:54:12.538Z,10.68
2022-10-07T22:56:39.615Z,11.90
2022-10-07T22:59:08.014Z,13.15
2022-10-07T23:01:35.017Z,12.15
2022-10-07T23:04:03.504Z,12.30
2022-10-07T23:06:35.158Z,11.63
2022-10-07T23:09:03.418Z,12.20
2022-10-07T23:11:30.360Z,12.32
2022-10-07T23:13:56.993Z,12.98
2022-10-07T23:16:27.240Z,12.38
2022-10-07T23:18:53.994Z,13.68
2022-10-07T23:21:25.521Z,13.23
2022-10-07T23:24:01.707Z,14.90
2022-10-07T23:26:33.451Z,13.55
2022-10-07T23:29:01.076Z,14.02
2022-10-07T23:31:29.715Z,13.43
2022-10-07T23:33:57.688Z,14.00
2022-10-07T23:36:25.429Z,14.48
2022-10-07T23:38:52.607Z,14.13
2022-10-07T23:41:25.430Z,12.82
2022-10-07T23:43:54.059Z,13.18
2022-10-07T23:46:22.218Z,12.05
2022-10-07T23:48:49.462Z,11.65
2022-10-07T23:51:19.068Z,11.82
2022-10-07T23:53:46.282Z,12.68
2022-10-07T23:56:13.278Z,12.98
2022-10-07T23:58:40.347Z,13.35
